Heman, Illinois
Current Conditions -  °F | °C
As of 2:54 AM on Friday 31 Oct 2014 (Local Time) from KDEC Reporting Station
Overcast Overcast  
Wind Chill: 44°   Ceiling: 6500
Heat Index: 44°   Visibility: 9mi
Dew Point: 42°   Wind: 3mph
Humidity: 93%   Direction: 340°NNW
Pressure: 30.07"   Gusts: NA
Location:  39.9621°N, 89.0863°W
Report Text: KDEC 310754Z AUTO 34003KT 9SM BKN065 OVC110 07/06 A3007 RMK AO2 SLP184 T00670056 TSNO
Loading
Personal Weather Stations






























Interactive Weather Map
Tropical Storm Tracking
New forecast layout! Learn more

10-Day Weather Forecast

Advertisements
Track Severe Weather on mobile